Copley, Ohio
Current Conditions -  °F | °C
As of 3:54 PM on Wednesday 26 Nov 2014 (Local Time) from KAKR Reporting Station
Overcast Overcast  
Wind Chill: 35°   Ceiling: 3500
Heat Index: 39°   Visibility: 10mi
Dew Point: 25°   Wind: 6mph
Humidity: 57%   Direction: 330°NNW
Pressure: 30.01"   Gusts: NA
Location:  41.1017°N, 81.6573°W
Report Text: KAKR 262054Z AUTO 33005KT 10SM SCT030 OVC035 04/M04 A3001 RMK AO2 SLP170 T00391039 56012
Loading
Personal Weather Stations






























Interactive Weather Map New forecast layout! Learn more

10-Day Weather Forecast

Advertisements
Track Severe Weather on mobile